Sarah — ODVY — position and weather

sailwx.info

Track history (hours):
 
Tides and Currents Weather Stations Pressure Air Temp Water Temp Dewpoint Dewpoint Depression Visibility Wind Speed Wind Dir Waves Ship Positions

Sarah

Last reported at 2018-May-16 14:51 UTC. Time now 2018-May-20 14:02 UTC.
Position N 34°26' E 030°11'.

Length 77 m; draft 6.4 m.

Type: Cargo ship. MMSI: 450554000.

Date/timePositionNaut miles runAvg speedWind from/ knotsBaromVisibWave heightAir tempDewpointWater temp
2018-May-16 14:51N 34°26' E 030°11'410.9
2018-May-16 14:30N 34°26' E 030°16'3011.1
2018-May-16 11:48N 34°23' E 030°52'310.7
2018-May-16 11:30N 34°22' E 030°55'910.7
2018-May-16 10:41N 34°21' E 031°06'210.7
2018-May-16 10:28N 34°21' E 031°09'7910.7
2018-May-16 03:02N 34°10' E 032°44'110.6
2018-May-16 02:59N 34°10' E 032°45'510.7
2018-May-16 02:30N 34°10' E 032°51'  
Track history (hours):
 
Tides and Currents Weather Stations Pressure Air Temp Water Temp Dewpoint Dewpoint Depression Visibility Wind Speed Wind Dir Waves Ship Positions

Sarah

Last reported at 2018-May-16 14:51 UTC. Time now 2018-May-20 14:02 UTC.
Position N 34°26' E 030°11'.

Length 77 m; draft 6.4 m.

Type: Cargo ship. MMSI: 450554000.

Date/timePositionNaut miles runAvg speedWind from/ knotsBaromVisibWave heightAir tempDewpointWater temp
2018-May-16 14:51N 34°26' E 030°11'410.9
2018-May-16 14:30N 34°26' E 030°16'3011.1
2018-May-16 11:48N 34°23' E 030°52'310.7
2018-May-16 11:30N 34°22' E 030°55'910.7
2018-May-16 10:41N 34°21' E 031°06'210.7
2018-May-16 10:28N 34°21' E 031°09'7910.7
2018-May-16 03:02N 34°10' E 032°44'110.6
2018-May-16 02:59N 34°10' E 032°45'510.7
2018-May-16 02:30N 34°10' E 032°51'  

Dump ship's entire track history